Data for 06/14/2006

Time Sea-Level Adjusted Pressure Absolute Pressure Temperature Relative Humidity Dew Point   
(mb) (inHg) (mb) (inHg) (C) (F) (%) (C) (F)
00:05 1015 29.97 844 24.92 17.7 63.9 79 14 57.3
00:10 1015 29.97 844 24.92 17.6 63.7 78 13.9 57
00:15 1015 29.97 844 24.92 17.6 63.7 78 13.7 56.6
00:20 1015 29.97 844 24.92 17.6 63.7 77 13.6 56.4
00:25 1015 29.97 844 24.92 17.5 63.5 79 13.8 56.8
00:30 1015 29.97 844 24.92 17.4 63.2 80 13.9 57
00:35 1015 29.97 844 24.92 17.1 62.8 81 13.8 56.8
00:40 1015 29.97 844 24.92 17.1 62.7 79 13.5 56.3
00:45 1015 29.97 844 24.92 17.1 62.8 80 13.6 56.4
00:50 1015 29.97 844 24.92 17 62.7 80 13.5 56.3
00:55 1015 29.97 844 24.92 16.9 62.3 80 13.4 56.2
01:00 1015 29.97 845 24.95 16.4 61.5 77 12.3 54.2
01:05 1016 30 845 24.95 16.1 60.9 76 11.8 53.2
01:10 1016 30 845 24.95 16.1 61.1 72 11.1 51.9
01:15 1015 29.97 844 24.92 16.7 62.1 71 11.5 52.8
01:20 1015 29.97 844 24.92 17 62.6 67 10.8 51.5
01:25 1015 29.97 844 24.92 17.3 63.2 67 11.2 52.2
01:30 1015 29.97 845 24.95 17.4 63.4 67 11.3 52.4
01:35 1015 29.97 844 24.92 17.4 63.4 55 8.3 47
01:40 1015 29.97 844 24.92 17.5 63.5 50 7 44.6
01:45 1015 29.97 844 24.92 17.3 63.1 50 7 44.6
01:50 1015 29.97 844 24.92 17 62.6 51 7 44.5
01:55 1015 29.97 844 24.92 16.8 62.3 50 6.4 43.5
02:00 1015 29.97 844 24.92 16.8 62.2 50 6.3 43.4
02:05 1015 29.97 844 24.92 16.9 62.4 48 5.9 42.5
02:10 1015 29.97 844 24.92 16.9 62.5 49 6.2 43.1
02:15 1015 29.97 844 24.92 16.9 62.4 49 6.3 43.4
02:20 1015 29.97 844 24.92 16.8 62.3 49 6.2 43.2
02:25 1015 29.97 844 24.92 16.7 62.1 50 6.5 43.6
02:30 1015 29.97 844 24.92 16.6 61.8 51 6.5 43.6
02:35 1015 29.97 844 24.92 16.4 61.5 52 6.6 43.8
02:40 1015 29.97 844 24.92 16.4 61.5 54 7 44.7
02:45 1014 29.94 844 24.92 16.1 61.1 55 7.2 45
02:50 1014 29.94 843 24.89 15.9 60.6 56 7.1 44.9
02:55 1014 29.94 844 24.92 15.8 60.5 56 7.2 45
03:00 1015 29.97 844 24.92 15.8 60.4 55 7 44.6
03:05 1015 29.97 844 24.92 15.8 60.5 58 7.6 45.6
03:10 1014 29.94 844 24.92 15.6 60.1 63 8.6 47.5
03:15 1015 29.97 844 24.92 15.3 59.6 66 9.1 48.4
03:20 1015 29.97 844 24.92 15.3 59.5 67 9.3 48.7
03:25 1015 29.97 844 24.92 15.2 59.4 68 9.5 49.2
03:30 1015 29.97 844 24.92 15.3 59.5 67 9.2 48.5
03:35 1015 29.97 844 24.92 15.3 59.5 64 8.5 47.3
03:40 1015 29.97 844 24.92 15.5 59.9 62 8.4 47
03:45 1015 29.97 844 24.92 15.7 60.2 62 8.6 47.5
03:50 1015 29.97 844 24.92 15.6 60 63 8.6 47.5
03:55 1015 29.97 844 24.92 15.5 59.9 58 7.5 45.5
04:00 1015 29.97 844 24.92 15.6 60.1 59 7.8 46
04:05 1015 29.97 844 24.92 15.3 59.6 62 8.1 46.5
04:10 1015 29.97 844 24.92 15.1 59.2 64 8.5 47.3
04:15 1015 29.97 844 24.92 14.9 58.7 68 9.1 48.4
04:20 1015 29.97 844 24.92 14.6 58.2 69 9 48.3
04:25 1015 29.97 844 24.92 14.3 57.8 69 8.8 47.8
04:30 1015 29.97 844 24.92 14.2 57.6 68 8.5 47.4
04:35 1015 29.97 844 24.92 14.1 57.4 69 8.6 47.5
04:40 1015 29.97 844 24.92 14 57.2 69 8.4 47.1
04:45 1015 29.97 844 24.92 14 57.1 69 8.4 47.2
04:50 1015 29.97 844 24.92 13.7 56.6 72 8.7 47.6
04:55 1015 29.97 844 24.92 13.5 56.4 70 8.2 46.8
05:00 1015 29.97 844 24.92 13.7 56.6 70 8.3 47
05:05 1015 29.97 844 24.92 13.8 56.8 66 7.6 45.6
05:10 1015 29.97 844 24.92 13.9 57 67 7.9 46.1
05:15 1015 29.97 844 24.92 13.9 57 68 8.1 46.5
05:20 1015 29.97 844 24.92 13.8 56.8 68 8 46.4
05:25 1015 29.97 844 24.92 13.7 56.7 69 8.1 46.5
05:30 1015 29.97 844 24.92 13.7 56.6 68 7.9 46.2
05:35 1015 29.97 844 24.92 13.6 56.5 70 8.4 47.1
05:40 1015 29.97 844 24.92 13.3 56 73 8.6 47.4
05:45 1015 29.97 844 24.92 13 55.3 72 8.1 46.6
05:50 1014 29.94 843 24.89 12.9 55.3 72 7.9 46.3
05:55 1014 29.94 843 24.89 13 55.4 70 7.7 45.9
06:00 1014 29.94 843 24.89 13.1 55.5 74 8.6 47.5
06:05 1014 29.94 843 24.89 12.6 54.7 78 9 48.1
06:10 1014 29.94 843 24.89 12.2 54 79 8.7 47.7
06:15 1014 29.94 843 24.89 12.1 53.8 79 8.6 47.6
06:20 1014 29.94 843 24.89 12.2 54 79 8.7 47.6
06:25 1014 29.94 843 24.89 12.5 54.6 76 8.4 47.2
06:30 1014 29.94 843 24.89 12.9 55.1 74 8.4 47.2
06:35 1013 29.91 843 24.89 13.3 55.9 71 8.2 46.8
06:40 1013 29.91 843 24.89 13.5 56.3 73 8.8 47.9
06:45 1013 29.91 842 24.86 13.2 55.8 79 9.6 49.3
06:50 1013 29.91 842 24.86 12.9 55.2 79 9.4 49
06:55 1013 29.91 842 24.86 12.8 55.1 77 9 48.2
07:00 1013 29.91 842 24.86 12.8 55.1 77 9 48.2
07:05 1012 29.88 842 24.86 12.8 55 77 8.9 48
07:10 1013 29.91 842 24.86 13 55.5 75 8.7 47.6
07:15 1013 29.91 842 24.86 13.3 55.9 74 8.7 47.7
07:20 1013 29.91 842 24.86 13.2 55.7 75 8.8 47.9
07:25 1013 29.91 842 24.86 13.3 56 75 9 48.2
07:30 1012 29.88 841 24.83 13.5 56.3 74 8.9 48
07:35 1012 29.88 841 24.83 13.7 56.6 72 8.7 47.7
07:40 1012 29.88 841 24.83 13.8 56.9 71 8.6 47.5
07:45 1012 29.88 842 24.86 14 57.2 66 7.9 46.2
07:50 1012 29.88 841 24.83 14.3 57.8 64 7.8 46
07:55 1012 29.88 841 24.83 14.8 58.6 59 7 44.6
08:00 1012 29.88 841 24.83 15.2 59.3 57 6.9 44.4
08:05 1012 29.88 841 24.83 15.4 59.7 56 6.7 44.1
08:10 1012 29.88 841 24.83 15.7 60.3 53 6.3 43.3
08:15 1012 29.88 841 24.83 15.7 60.2 57 7.4 45.3
08:20 1012 29.88 841 24.83 15.4 59.8 60 7.7 45.9
08:25 1012 29.88 841 24.83 15.3 59.5 59 7.3 45.1
08:30 1012 29.88 841 24.83 15.3 59.5 57 6.9 44.5
08:35 1012 29.88 841 24.83 15.4 59.7 57 6.9 44.5
08:40 1012 29.88 841 24.83 15.5 59.9 56 6.9 44.4
08:45 1012 29.88 841 24.83 15.5 59.8 58 7.2 45
08:50 1012 29.88 841 24.83 15.4 59.8 57 6.9 44.5
08:55 1012 29.88 841 24.83 15.4 59.6 58 7.1 44.8
09:00 1012 29.88 841 24.83 15.3 59.5 58 7.2 45
09:05 1012 29.88 841 24.83 15.2 59.3 59 7.2 45
09:10 1012 29.88 841 24.83 15.3 59.5 59 7.3 45.1
09:15 1012 29.88 841 24.83 15.4 59.7 58 7.1 44.9
09:20 1012 29.88 841 24.83 15.4 59.7 59 7.4 45.4
09:25 1012 29.88 841 24.83 15.5 59.9 58 7.3 45.1
09:30 1012 29.88 841 24.83 15.6 60.1 57 7.3 45.2
09:35 1012 29.88 841 24.83 15.7 60.2 57 7.2 45
09:40 1012 29.88 841 24.83 15.6 60.1 57 7.3 45.2
09:45 1012 29.88 841 24.83 15.5 59.9 58 7.4 45.2
09:50 1012 29.88 841 24.83 15.5 59.8 58 7.3 45.1
09:55 1012 29.88 841 24.83 15.5 59.9 58 7.3 45.1
10:00 1012 29.88 841 24.83 15.5 59.8 58 7.3 45.1
10:05 1012 29.88 841 24.83 15.5 60 57 7 44.7
10:10 1012 29.88 841 24.83 15.8 60.4 55 6.9 44.4
10:15 1012 29.88 841 24.83 15.9 60.6 55 6.8 44.3
10:20 1012 29.88 841 24.83 15.9 60.5 68 10 50
10:25 1012 29.88 841 24.83 15.4 59.8 71 10.2 50.4
10:30 1012 29.88 841 24.83 15.2 59.4 70 9.9 49.7
10:35 1012 29.88 841 24.83 15.3 59.6 68 9.5 49.1
10:40 1012 29.88 841 24.83 15.8 60.4 66 9.4 48.9
10:45 1012 29.88 841 24.83 15.4 59.6 65 8.9 48
10:50 1012 29.88 841 24.83 16 60.7 61 8.6 47.5
10:55 1012 29.88 841 24.83 16.4 61.4 60 8.5 47.4
11:00 1011 29.85 841 24.83 16.3 61.4 59 8.4 47.1
11:05 1011 29.85 841 24.83 16.9 62.5 58 8.6 47.4
11:10 1011 29.85 840 24.81 17.7 63.9 54 8.3 47
11:15 1011 29.85 840 24.81 18.1 64.5 52 8.1 46.6
11:20 1011 29.85 840 24.81 18.2 64.8 52 8.3 47
11:25 1011 29.85 840 24.81 18.5 65.3 50 8 46.5
11:30 1011 29.85 840 24.81 18.8 65.8 48 7.6 45.7
11:35 1011 29.85 840 24.81 19.1 66.3 47 7.5 45.5
11:40 1011 29.85 840 24.81 19.4 66.9 44 7.1 44.8
11:45 1011 29.85 840 24.81 19.6 67.3 46 7.7 45.9
11:50 1011 29.85 840 24.81 19.5 67.1 46 7.7 45.9
11:55 1011 29.85 840 24.81 20 68.1 44 7.6 45.7
12:00 1011 29.85 840 24.81 19.7 67.5 45 7.6 45.7
12:05 1011 29.85 840 24.81 19.1 66.3 48 7.9 46.3
12:10 1011 29.85 840 24.81 18.8 65.8 45 6.8 44.3
12:15 1011 29.85 840 24.81 18.9 66 45 6.9 44.5
12:20 1011 29.85 840 24.81 19 66.2 46 7.3 45.2
12:25 1012 29.88 841 24.83 18.4 65.1 47 6.9 44.4
12:30 1012 29.88 841 24.83 14.2 57.6 67 8.2 46.7
12:35 1012 29.88 841 24.83 12.1 53.8 73 7.5 45.6
12:40 1012 29.88 842 24.86 11.6 52.9 76 7.5 45.4
12:45 1013 29.91 842 24.86 11.4 52.5 73 6.8 44.2
12:50 1013 29.91 842 24.86 11.4 52.6 72 6.6 43.8
12:55 1013 29.91 842 24.86 11.7 53.1 71 6.6 43.9
13:00 1013 29.91 842 24.86 12 53.7 69 6.5 43.7
13:05 1013 29.91 842 24.86 12.4 54.3 68 6.8 44.2
13:10 1013 29.91 842 24.86 12.6 54.8 64 6.2 43.1
13:15 1013 29.91 842 24.86 13 55.3 64 6.4 43.5
13:20 1013 29.91 842 24.86 13.3 55.9 67 7.4 45.3
13:25 1013 29.91 842 24.86 13.7 56.7 62 6.7 44.1
13:30 1013 29.91 842 24.86 14.2 57.6 64 7.5 45.5
13:35 1012 29.88 842 24.86 15 58.9 63 8 46.3
13:40 1012 29.88 841 24.83 15.8 60.4 60 8.2 46.7
13:45 1012 29.88 841 24.83 16.8 62.2 57 8.4 47.1
13:50 1012 29.88 841 24.83 17.3 63.2 55 8.2 46.7
13:55 1012 29.88 842 24.86 17.7 63.9 48 6.7 44
14:00 1013 29.91 842 24.86 17.7 63.9 46 6.2 43.2
14:05 1013 29.91 842 24.86 17.7 63.8 43 5.1 41.2
14:10 1013 29.91 842 24.86 17.2 62.9 45 5.2 41.4
14:15 1013 29.91 842 24.86 17.1 62.8 46 5.6 42.1
14:20 1013 29.91 842 24.86 17.3 63.1 44 5.2 41.3
14:25 1013 29.91 842 24.86 17.4 63.3 48 6.3 43.4
14:30 1013 29.91 842 24.86 17.3 63.1 46 5.7 42.3
14:35 1012 29.88 842 24.86 17.4 63.3 46 5.7 42.2
14:40 1012 29.88 842 24.86 17.5 63.5 51 7.3 45.1
14:45 1013 29.91 842 24.86 16.8 62.2 56 8 46.4
14:50 1013 29.91 842 24.86 16.3 61.3 57 7.9 46.2
14:55 1012 29.88 842 24.86 16 60.8 57 7.6 45.6
15:00 1012 29.88 842 24.86 15.4 59.8 58 7.2 45
15:05 1013 29.91 842 24.86 15.5 59.9 59 7.7 45.9
15:10 1012 29.88 842 24.86 15.8 60.4 56 7 44.7
15:15 1012 29.88 842 24.86 16.5 61.6 52 6.6 43.9
15:20 1012 29.88 842 24.86 16.9 62.4 52 6.9 44.5
15:25 1012 29.88 842 24.86 17.1 62.8 49 6.4 43.4
15:30 1012 29.88 842 24.86 17.3 63.1 48 6.3 43.4
15:35 1013 29.91 842 24.86 17 62.6 48 6 42.7
15:40 1013 29.91 842 24.86 16.6 61.8 49 5.8 42.5
15:45 1013 29.91 842 24.86 16.7 62 49 6.1 43.1
15:50 1012 29.88 842 24.86 16.5 61.7 53 6.9 44.4
15:55 1012 29.88 842 24.86 15.8 60.4 52 6 42.9
16:00 1012 29.88 842 24.86 15.6 60.1 53 6.3 43.3
16:05 1012 29.88 841 24.83 15.6 60 54 6.5 43.7
16:10 1012 29.88 841 24.83 15.5 60 56 6.8 44.3
16:15 1012 29.88 841 24.83 15.8 60.4 54 6.6 43.9
16:20 1012 29.88 841 24.83 16 60.7 54 6.6 43.9
16:25 1012 29.88 841 24.83 15.9 60.6 52 6.2 43.1
16:30 1012 29.88 841 24.83 15.9 60.6 52 6.1 43
16:35 1012 29.88 841 24.83 15.8 60.5 51 5.7 42.2
16:40 1012 29.88 841 24.83 15.5 59.9 51 5.4 41.7
16:45 1012 29.88 842 24.86 15 58.9 56 6.3 43.3
16:50 1012 29.88 842 24.86 14.8 58.6 55 5.8 42.5
16:55 1013 29.91 842 24.86 14.7 58.4 54 5.6 42.1
17:00 1013 29.91 842 24.86 14.6 58.3 53 5.3 41.6
17:05 1013 29.91 842 24.86 15.1 59.2 52 5.5 41.9
17:10 1013 29.91 842 24.86 15.4 59.7 51 5.5 41.8
17:15 1013 29.91 842 24.86 15.6 60 50 5.2 41.3
17:20 1013 29.91 842 24.86 15.5 59.8 52 5.6 42.1
17:25 1013 29.91 842 24.86 15.6 60.1 50 5.2 41.4
17:30 1013 29.91 842 24.86 15.8 60.5 49 5.3 41.6
17:35 1013 29.91 842 24.86 16.1 60.9 49 5.4 41.8
17:40 1013 29.91 842 24.86 16 60.8 47 4.8 40.6
17:45 1013 29.91 842 24.86 16.5 61.6 43 4 39.2
17:50 1013 29.91 842 24.86 16.5 61.6 43 3.9 39
17:55 1013 29.91 842 24.86 16.4 61.5 45 4.4 39.9
18:00 1013 29.91 842 24.86 16.5 61.6 44 4.4 39.9
18:05 1013 29.91 842 24.86 16.2 61.2 42 3.5 38.3
18:10 1013 29.91 842 24.86 16.4 61.5 41 3.3 37.9
18:15 1013 29.91 842 24.86 16.4 61.5 44 4.1 39.4
18:20 1013 29.91 842 24.86 16.2 61.1 46 4.5 40.1
18:25 1013 29.91 842 24.86 16 60.7 47 4.9 40.8
18:30 1013 29.91 842 24.86 15.4 59.8 61 7.9 46.3
18:35 1013 29.91 842 24.86 14.4 58 64 7.7 45.8
18:40 1013 29.91 842 24.86 14.2 57.6 62 7.1 44.9
18:45 1013 29.91 842 24.86 14 57.1 66 7.9 46.2
18:50 1013 29.91 842 24.86 13.4 56.2 69 7.8 46.1
18:55 1014 29.94 843 24.89 13.2 55.8 72 8.3 47
19:00 1014 29.94 843 24.89 12.6 54.7 77 8.8 47.8
19:05 1014 29.94 843 24.89 12.1 53.9 80 8.9 48
19:10 1014 29.94 843 24.89 11.6 52.9 84 8.9 48.1
19:15 1014 29.94 843 24.89 11.4 52.6 85 9 48.2
19:20 1014 29.94 843 24.89 11.4 52.4 85 8.9 48
19:25 1014 29.94 843 24.89 11.2 52.1 83 8.4 47.1
19:30 1014 29.94 843 24.89 10.7 51.3 86 8.5 47.2
19:35 1014 29.94 843 24.89 10.4 50.6 88 8.5 47.3
19:40 1014 29.94 843 24.89 10.2 50.4 85 7.8 46.1
19:45 1014 29.94 843 24.89 10.1 50.2 85 7.7 45.8
19:50 1014 29.94 843 24.89 10 50.1 83 7.3 45.2
19:55 1014 29.94 844 24.92 10 49.9 83 7.3 45.1
20:00 1015 29.97 844 24.92 9.9 49.9 82 7 44.7
20:05 1015 29.97 844 24.92 10 49.9 82 7 44.6
20:10 1015 29.97 844 24.92 10 50 81 6.9 44.3
20:15 1015 29.97 844 24.92 10.1 50.3 81 7.1 44.7
20:20 1015 29.97 844 24.92 10.2 50.3 81 7 44.7
20:25 1015 29.97 844 24.92 10.2 50.3 82 7.3 45.1
20:30 1015 29.97 844 24.92 10.1 50.3 81 7.1 44.7
20:35 1015 29.97 844 24.92 10.2 50.3 82 7.2 45
20:40 1015 29.97 844 24.92 10.2 50.3 84 7.7 45.8
20:45 1015 29.97 844 24.92 10 50.1 84 7.4 45.4
20:50 1015 29.97 844 24.92 10 49.9 84 7.4 45.3
20:55 1015 29.97 844 24.92 9.9 49.8 84 7.4 45.3
21:00 1015 29.97 844 24.92 9.8 49.7 86 7.6 45.8
21:05 1015 29.97 844 24.92 9.7 49.5 88 7.9 46.1
21:10 1015 29.97 844 24.92 9.7 49.4 89 8 46.4
21:15 1015 29.97 844 24.92 9.5 49 88 7.6 45.7
21:20 1015 29.97 844 24.92 9.3 48.7 88 7.4 45.2
21:25 1015 29.97 844 24.92 9.1 48.4 87 7 44.7
21:30 1015 29.97 844 24.92 9 48.3 89 7.4 45.3
21:35 1015 29.97 844 24.92 9 48.2 89 7.3 45.1
21:40 1015 29.97 844 24.92 8.8 47.8 87 6.8 44.3
21:45 1015 29.97 844 24.92 8.8 47.8 87 6.8 44.2
21:50 1015 29.97 844 24.92 8.8 47.8 88 6.8 44.3
21:55 1015 29.97 844 24.92 8.7 47.7 88 6.8 44.3
22:00 1015 29.97 844 24.92 8.8 47.8 88 7 44.5
22:05 1015 29.97 844 24.92 8.8 47.8 86 6.7 44
22:10 1015 29.97 844 24.92 8.8 47.9 87 6.8 44.3
22:15 1015 29.97 844 24.92 8.9 48 87 6.9 44.4
22:20 1015 29.97 845 24.95 9 48.2 86 6.8 44.2
22:25 1015 29.97 845 24.95 8.9 48.1 85 6.6 43.8
22:30 1015 29.97 845 24.95 8.9 48.1 85 6.5 43.7
22:35 1015 29.97 845 24.95 9 48.1 84 6.4 43.5
22:40 1015 29.97 845 24.95 9 48.3 83 6.4 43.5
22:45 1015 29.97 845 24.95 9.1 48.3 84 6.4 43.6
22:50 1015 29.97 845 24.95 9.2 48.5 82 6.2 43.2
22:55 1015 29.97 844 24.92 9.2 48.6 86 6.9 44.5
23:00 1015 29.97 844 24.92 9 48.1 86 6.7 44
23:05 1015 29.97 844 24.92 8.9 48.1 85 6.6 44
23:10 1015 29.97 844 24.92 9 48.2 84 6.5 43.7
23:15 1015 29.97 844 24.92 8.9 48.1 86 6.7 44
23:20 1015 29.97 844 24.92 8.9 47.9 86 6.6 44
23:25 1015 29.97 844 24.92 8.9 48.1 87 6.8 44.3
23:30 1015 29.97 844 24.92 8.9 48 86 6.7 44
23:35 1015 29.97 844 24.92 8.9 47.9 86 6.7 44.1
23:40 1015 29.97 844 24.92 9 48.2 86 6.8 44.2
23:45 1015 29.97 844 24.92 8.9 48.1 88 7.1 44.7
23:50 1015 29.97 844 24.92 8.8 47.8 87 6.8 44.2
23:55 1015 29.97 844 24.92 8.8 47.9 87 6.7 44.1
24:00 1015 29.97 844 24.92 8.8 47.9 88 7 44.6